sensor_id;sensor_type;location;lat;lon;timestamp;temperature;humidity
74873;HTU21D;68776;44.762;37.698;2023-04-16T00:00:09;9.54;75.98
74873;HTU21D;68776;44.762;37.698;2023-04-16T00:01:13;9.55;75.99
74873;HTU21D;68776;44.762;37.698;2023-04-16T00:02:14;9.56;75.81
74873;HTU21D;68776;44.762;37.698;2023-04-16T00:03:15;9.57;75.93
74873;HTU21D;68776;44.762;37.698;2023-04-16T00:04:16;9.60;75.62
74873;HTU21D;68776;44.762;37.698;2023-04-16T00:05:17;9.56;75.54
74873;HTU21D;68776;44.762;37.698;2023-04-16T00:06:18;9.55;75.73
74873;HTU21D;68776;44.762;37.698;2023-04-16T00:07:19;9.54;75.59
74873;HTU21D;68776;44.762;37.698;2023-04-16T00:08:21;9.54;75.67
74873;HTU21D;68776;44.762;37.698;2023-04-16T00:09:23;9.52;75.53
74873;HTU21D;68776;44.762;37.698;2023-04-16T00:10:24;9.51;75.56
74873;HTU21D;68776;44.762;37.698;2023-04-16T00:11:25;9.53;76.09
74873;HTU21D;68776;44.762;37.698;2023-04-16T00:12:26;9.53;75.79
74873;HTU21D;68776;44.762;37.698;2023-04-16T00:13:27;9.53;75.58
74873;HTU21D;68776;44.762;37.698;2023-04-16T00:14:29;9.55;75.60
74873;HTU21D;68776;44.762;37.698;2023-04-16T00:15:29;9.59;75.47
74873;HTU21D;68776;44.762;37.698;2023-04-16T00:16:30;9.57;75.38
74873;HTU21D;68776;44.762;37.698;2023-04-16T00:17:31;9.57;76.19
74873;HTU21D;68776;44.762;37.698;2023-04-16T00:18:32;9.61;76.76
74873;HTU21D;68776;44.762;37.698;2023-04-16T00:19:33;9.63;76.53
74873;HTU21D;68776;44.762;37.698;2023-04-16T00:20:34;9.62;76.00
74873;HTU21D;68776;44.762;37.698;2023-04-16T00:21:35;9.63;76.26
74873;HTU21D;68776;44.762;37.698;2023-04-16T00:22:36;9.63;76.12
74873;HTU21D;68776;44.762;37.698;2023-04-16T00:23:37;9.60;75.73
74873;HTU21D;68776;44.762;37.698;2023-04-16T00:24:38;9.56;76.05
74873;HTU21D;68776;44.762;37.698;2023-04-16T00:25:39;9.54;76.32
74873;HTU21D;68776;44.762;37.698;2023-04-16T00:26:40;9.49;76.21
74873;HTU21D;68776;44.762;37.698;2023-04-16T00:27:43;9.48;75.83
74873;HTU21D;68776;44.762;37.698;2023-04-16T00:28:44;9.47;75.66
74873;HTU21D;68776;44.762;37.698;2023-04-16T00:29:45;9.42;75.56
74873;HTU21D;68776;44.762;37.698;2023-04-16T00:30:46;9.40;75.60
74873;HTU21D;68776;44.762;37.698;2023-04-16T00:31:47;9.42;75.57
74873;HTU21D;68776;44.762;37.698;2023-04-16T00:32:48;9.41;75.31
74873;HTU21D;68776;44.762;37.698;2023-04-16T00:33:49;9.40;75.29
74873;HTU21D;68776;44.762;37.698;2023-04-16T00:34:50;9.41;75.54
74873;HTU21D;68776;44.762;37.698;2023-04-16T00:35:52;9.44;75.79
74873;HTU21D;68776;44.762;37.698;2023-04-16T00:36:53;9.45;75.45
74873;HTU21D;68776;44.762;37.698;2023-04-16T00:37:53;9.41;75.37
74873;HTU21D;68776;44.762;37.698;2023-04-16T00:38:55;9.36;75.34
74873;HTU21D;68776;44.762;37.698;2023-04-16T00:39:56;9.29;75.48
74873;HTU21D;68776;44.762;37.698;2023-04-16T00:40:57;9.26;75.56
74873;HTU21D;68776;44.762;37.698;2023-04-16T00:41:58;9.25;75.48
74873;HTU21D;68776;44.762;37.698;2023-04-16T00:43:00;9.21;75.57
74873;HTU21D;68776;44.762;37.698;2023-04-16T00:44:01;9.21;75.57
74873;HTU21D;68776;44.762;37.698;2023-04-16T00:45:03;9.18;75.60
74873;HTU21D;68776;44.762;37.698;2023-04-16T00:46:04;9.17;75.67
74873;HTU21D;68776;44.762;37.698;2023-04-16T00:47:07;9.12;75.73
74873;HTU21D;68776;44.762;37.698;2023-04-16T00:48:08;9.14;75.75
74873;HTU21D;68776;44.762;37.698;2023-04-16T00:49:09;9.12;75.83
74873;HTU21D;68776;44.762;37.698;2023-04-16T00:50:10;9.09;75.87
74873;HTU21D;68776;44.762;37.698;2023-04-16T00:51:11;9.08;75.87
74873;HTU21D;68776;44.762;37.698;2023-04-16T00:52:12;9.07;75.70
74873;HTU21D;68776;44.762;37.698;2023-04-16T00:53:14;9.07;75.47
74873;HTU21D;68776;44.762;37.698;2023-04-16T00:54:15;9.07;75.39
74873;HTU21D;68776;44.762;37.698;2023-04-16T00:55:16;9.11;75.19
74873;HTU21D;68776;44.762;37.698;2023-04-16T00:56:19;9.11;75.38
74873;HTU21D;68776;44.762;37.698;2023-04-16T00:57:22;9.15;75.28
74873;HTU21D;68776;44.762;37.698;2023-04-16T00:58:24;9.16;75.08
74873;HTU21D;68776;44.762;37.698;2023-04-16T00:59:26;9.12;75.31
74873;HTU21D;68776;44.762;37.698;2023-04-16T01:00:27;9.11;75.40
74873;HTU21D;68776;44.762;37.698;2023-04-16T01:01:28;9.09;75.43
74873;HTU21D;68776;44.762;37.698;2023-04-16T01:02:29;9.06;75.51
74873;HTU21D;68776;44.762;37.698;2023-04-16T01:03:42;9.04;75.63
74873;HTU21D;68776;44.762;37.698;2023-04-16T01:04:44;8.97;75.73
74873;HTU21D;68776;44.762;37.698;2023-04-16T01:05:45;8.96;75.80
74873;HTU21D;68776;44.762;37.698;2023-04-16T01:06:48;9.00;76.12
74873;HTU21D;68776;44.762;37.698;2023-04-16T01:07:51;9.00;75.94
74873;HTU21D;68776;44.762;37.698;2023-04-16T01:08:52;9.00;76.24
74873;HTU21D;68776;44.762;37.698;2023-04-16T01:09:53;9.02;76.15
74873;HTU21D;68776;44.762;37.698;2023-04-16T01:10:54;9.04;76.22
74873;HTU21D;68776;44.762;37.698;2023-04-16T01:11:55;9.08;76.30
74873;HTU21D;68776;44.762;37.698;2023-04-16T01:12:56;9.09;76.17
74873;HTU21D;68776;44.762;37.698;2023-04-16T01:13:56;9.10;76.18
74873;HTU21D;68776;44.762;37.698;2023-04-16T01:14:58;9.10;76.41
74873;HTU21D;68776;44.762;37.698;2023-04-16T01:15:59;9.15;76.25
74873;HTU21D;68776;44.762;37.698;2023-04-16T01:17:01;9.14;75.78
74873;HTU21D;68776;44.762;37.698;2023-04-16T01:18:15;9.12;75.50
74873;HTU21D;68776;44.762;37.698;2023-04-16T01:19:16;9.15;75.49
74873;HTU21D;68776;44.762;37.698;2023-04-16T01:20:17;9.15;75.41
74873;HTU21D;68776;44.762;37.698;2023-04-16T01:21:18;9.16;75.88
74873;HTU21D;68776;44.762;37.698;2023-04-16T01:22:19;9.17;75.83
74873;HTU21D;68776;44.762;37.698;2023-04-16T01:23:20;9.18;76.22
74873;HTU21D;68776;44.762;37.698;2023-04-16T01:24:22;9.19;76.36
74873;HTU21D;68776;44.762;37.698;2023-04-16T01:25:23;9.19;76.63
74873;HTU21D;68776;44.762;37.698;2023-04-16T01:26:24;9.19;76.37
74873;HTU21D;68776;44.762;37.698;2023-04-16T01:27:25;9.18;75.89
74873;HTU21D;68776;44.762;37.698;2023-04-16T01:28:26;9.16;75.85
74873;HTU21D;68776;44.762;37.698;2023-04-16T01:29:27;9.14;75.70
74873;HTU21D;68776;44.762;37.698;2023-04-16T01:30:30;9.10;75.69
74873;HTU21D;68776;44.762;37.698;2023-04-16T01:31:57;9.09;75.95
74873;HTU21D;68776;44.762;37.698;2023-04-16T01:33:05;9.07;75.77
74873;HTU21D;68776;44.762;37.698;2023-04-16T01:34:07;9.04;75.86
74873;HTU21D;68776;44.762;37.698;2023-04-16T01:35:09;9.05;75.92
74873;HTU21D;68776;44.762;37.698;2023-04-16T01:36:09;9.03;75.86
74873;HTU21D;68776;44.762;37.698;2023-04-16T01:37:11;9.01;75.83
74873;HTU21D;68776;44.762;37.698;2023-04-16T01:38:12;8.97;75.91
74873;HTU21D;68776;44.762;37.698;2023-04-16T01:39:13;8.96;76.21
74873;HTU21D;68776;44.762;37.698;2023-04-16T01:40:16;8.95;76.07
74873;HTU21D;68776;44.762;37.698;2023-04-16T01:41:17;8.96;76.18
74873;HTU21D;68776;44.762;37.698;2023-04-16T01:42:18;8.93;75.96
74873;HTU21D;68776;44.762;37.698;2023-04-16T01:43:18;8.90;75.94
74873;HTU21D;68776;44.762;37.698;2023-04-16T01:44:20;8.87;76.01
74873;HTU21D;68776;44.762;37.698;2023-04-16T01:45:22;8.85;76.02
74873;HTU21D;68776;44.762;37.698;2023-04-16T01:46:27;8.82;76.06
74873;HTU21D;68776;44.762;37.698;2023-04-16T01:47:31;8.85;76.07
74873;HTU21D;68776;44.762;37.698;2023-04-16T01:48:32;8.85;76.21
74873;HTU21D;68776;44.762;37.698;2023-04-16T01:49:34;8.88;76.29
74873;HTU21D;68776;44.762;37.698;2023-04-16T01:50:36;8.89;76.29
74873;HTU21D;68776;44.762;37.698;2023-04-16T01:51:37;8.87;76.25
74873;HTU21D;68776;44.762;37.698;2023-04-16T01:52:38;8.83;76.24
74873;HTU21D;68776;44.762;37.698;2023-04-16T01:53:39;8.83;76.12
74873;HTU21D;68776;44.762;37.698;2023-04-16T01:54:40;8.81;76.09
74873;HTU21D;68776;44.762;37.698;2023-04-16T01:55:41;8.80;76.16
74873;HTU21D;68776;44.762;37.698;2023-04-16T01:56:41;8.78;76.09
74873;HTU21D;68776;44.762;37.698;2023-04-16T01:57:42;8.76;76.08
74873;HTU21D;68776;44.762;37.698;2023-04-16T01:58:46;8.75;76.31
74873;HTU21D;68776;44.762;37.698;2023-04-16T01:59:48;8.75;76.22
74873;HTU21D;68776;44.762;37.698;2023-04-16T02:00:51;8.72;76.31
74873;HTU21D;68776;44.762;37.698;2023-04-16T02:01:52;8.74;77.05
74873;HTU21D;68776;44.762;37.698;2023-04-16T02:02:53;8.79;77.34
74873;HTU21D;68776;44.762;37.698;2023-04-16T02:04:00;8.80;77.17
74873;HTU21D;68776;44.762;37.698;2023-04-16T02:05:01;8.79;76.78
74873;HTU21D;68776;44.762;37.698;2023-04-16T02:06:02;8.81;77.23
74873;HTU21D;68776;44.762;37.698;2023-04-16T02:07:04;8.81;77.01
74873;HTU21D;68776;44.762;37.698;2023-04-16T02:08:05;8.80;76.76
74873;HTU21D;68776;44.762;37.698;2023-04-16T02:09:06;8.77;76.43
74873;HTU21D;68776;44.762;37.698;2023-04-16T02:10:08;8.76;76.30
74873;HTU21D;68776;44.762;37.698;2023-04-16T02:11:12;8.76;76.55
74873;HTU21D;68776;44.762;37.698;2023-04-16T02:12:13;8.74;76.39
74873;HTU21D;68776;44.762;37.698;2023-04-16T02:13:15;8.71;76.35
74873;HTU21D;68776;44.762;37.698;2023-04-16T02:14:18;8.67;76.34
74873;HTU21D;68776;44.762;37.698;2023-04-16T02:15:19;8.64;76.47
74873;HTU21D;68776;44.762;37.698;2023-04-16T02:16:20;8.59;76.58
74873;HTU21D;68776;44.762;37.698;2023-04-16T02:17:26;8.59;76.98
74873;HTU21D;68776;44.762;37.698;2023-04-16T02:18:39;8.58;76.98
74873;HTU21D;68776;44.762;37.698;2023-04-16T02:19:40;8.56;76.95
74873;HTU21D;68776;44.762;37.698;2023-04-16T02:20:44;8.52;76.96
74873;HTU21D;68776;44.762;37.698;2023-04-16T02:21:46;8.53;77.25
74873;HTU21D;68776;44.762;37.698;2023-04-16T02:22:48;8.52;77.22
74873;HTU21D;68776;44.762;37.698;2023-04-16T02:23:52;8.52;77.31
74873;HTU21D;68776;44.762;37.698;2023-04-16T02:24:59;8.51;77.30
74873;HTU21D;68776;44.762;37.698;2023-04-16T02:26:02;8.51;77.24
74873;HTU21D;68776;44.762;37.698;2023-04-16T02:27:03;8.51;77.21
74873;HTU21D;68776;44.762;37.698;2023-04-16T02:28:04;8.48;77.26
74873;HTU21D;68776;44.762;37.698;2023-04-16T02:29:10;8.47;77.35
74873;HTU21D;68776;44.762;37.698;2023-04-16T02:30:16;8.49;77.50
74873;HTU21D;68776;44.762;37.698;2023-04-16T02:31:17;8.49;77.47
74873;HTU21D;68776;44.762;37.698;2023-04-16T02:32:19;8.48;77.34
74873;HTU21D;68776;44.762;37.698;2023-04-16T02:33:21;8.48;77.20
74873;HTU21D;68776;44.762;37.698;2023-04-16T02:34:33;8.48;77.08
74873;HTU21D;68776;44.762;37.698;2023-04-16T02:35:36;8.50;77.00
74873;HTU21D;68776;44.762;37.698;2023-04-16T02:36:37;8.50;76.97
74873;HTU21D;68776;44.762;37.698;2023-04-16T02:37:38;8.55;77.19
74873;HTU21D;68776;44.762;37.698;2023-04-16T02:38:40;8.56;77.34
74873;HTU21D;68776;44.762;37.698;2023-04-16T02:39:41;8.53;77.20
74873;HTU21D;68776;44.762;37.698;2023-04-16T02:40:43;8.52;77.14
74873;HTU21D;68776;44.762;37.698;2023-04-16T02:41:45;8.50;77.15
74873;HTU21D;68776;44.762;37.698;2023-04-16T02:42:45;8.50;77.20
74873;HTU21D;68776;44.762;37.698;2023-04-16T02:43:47;8.48;77.28
74873;HTU21D;68776;44.762;37.698;2023-04-16T02:44:48;8.48;77.44
74873;HTU21D;68776;44.762;37.698;2023-04-16T02:45:49;8.50;77.38
74873;HTU21D;68776;44.762;37.698;2023-04-16T02:46:50;8.50;77.31
74873;HTU21D;68776;44.762;37.698;2023-04-16T02:47:51;8.52;77.33
74873;HTU21D;68776;44.762;37.698;2023-04-16T02:48:52;8.52;77.21
74873;HTU21D;68776;44.762;37.698;2023-04-16T02:49:53;8.51;77.14
74873;HTU21D;68776;44.762;37.698;2023-04-16T02:50:54;8.50;77.26
74873;HTU21D;68776;44.762;37.698;2023-04-16T02:51:55;8.50;0.00
74873;HTU21D;68776;44.762;37.698;2023-04-16T02:52:56;8.49;77.36
74873;HTU21D;68776;44.762;37.698;2023-04-16T02:53:57;8.49;77.33
74873;HTU21D;68776;44.762;37.698;2023-04-16T02:54:58;8.51;78.06
74873;HTU21D;68776;44.762;37.698;2023-04-16T02:56:00;8.56;78.02
74873;HTU21D;68776;44.762;37.698;2023-04-16T02:57:01;8.58;78.14
74873;HTU21D;68776;44.762;37.698;2023-04-16T02:58:02;8.64;78.24
74873;HTU21D;68776;44.762;37.698;2023-04-16T02:59:03;8.66;77.81
74873;HTU21D;68776;44.762;37.698;2023-04-16T03:00:04;8.67;77.58
74873;HTU21D;68776;44.762;37.698;2023-04-16T03:01:06;8.65;77.31
74873;HTU21D;68776;44.762;37.698;2023-04-16T03:02:07;8.64;77.21
74873;HTU21D;68776;44.762;37.698;2023-04-16T03:03:08;8.64;0.00
74873;HTU21D;68776;44.762;37.698;2023-04-16T03:04:09;8.66;77.16
74873;HTU21D;68776;44.762;37.698;2023-04-16T03:05:10;8.66;77.21
74873;HTU21D;68776;44.762;37.698;2023-04-16T03:06:11;8.66;77.04
74873;HTU21D;68776;44.762;37.698;2023-04-16T03:07:13;8.65;76.97
74873;HTU21D;68776;44.762;37.698;2023-04-16T03:08:14;8.62;77.05
74873;HTU21D;68776;44.762;37.698;2023-04-16T03:09:15;8.60;77.21
74873;HTU21D;68776;44.762;37.698;2023-04-16T03:10:16;8.58;77.27
74873;HTU21D;68776;44.762;37.698;2023-04-16T03:11:17;8.57;77.26
74873;HTU21D;68776;44.762;37.698;2023-04-16T03:12:19;8.60;77.17
74873;HTU21D;68776;44.762;37.698;2023-04-16T03:13:20;8.61;77.25
74873;HTU21D;68776;44.762;37.698;2023-04-16T03:14:22;8.65;77.04
74873;HTU21D;68776;44.762;37.698;2023-04-16T03:15:23;8.65;76.99
74873;HTU21D;68776;44.762;37.698;2023-04-16T03:16:24;8.66;77.00
74873;HTU21D;68776;44.762;37.698;2023-04-16T03:17:25;8.71;77.33
74873;HTU21D;68776;44.762;37.698;2023-04-16T03:18:26;8.73;77.37
74873;HTU21D;68776;44.762;37.698;2023-04-16T03:19:27;8.74;77.13
74873;HTU21D;68776;44.762;37.698;2023-04-16T03:20:28;8.72;76.90
74873;HTU21D;68776;44.762;37.698;2023-04-16T03:21:29;8.72;76.88
74873;HTU21D;68776;44.762;37.698;2023-04-16T03:22:32;8.72;76.89
74873;HTU21D;68776;44.762;37.698;2023-04-16T03:23:33;8.75;77.03
74873;HTU21D;68776;44.762;37.698;2023-04-16T03:24:35;8.79;77.27
74873;HTU21D;68776;44.762;37.698;2023-04-16T03:25:37;8.81;76.89
74873;HTU21D;68776;44.762;37.698;2023-04-16T03:26:41;8.83;76.87
74873;HTU21D;68776;44.762;37.698;2023-04-16T03:27:43;8.83;76.82
74873;HTU21D;68776;44.762;37.698;2023-04-16T03:28:45;8.81;76.65
74873;HTU21D;68776;44.762;37.698;2023-04-16T03:29:46;8.82;76.58
74873;HTU21D;68776;44.762;37.698;2023-04-16T03:30:51;8.82;76.54
74873;HTU21D;68776;44.762;37.698;2023-04-16T03:31:52;8.81;76.61
74873;HTU21D;68776;44.762;37.698;2023-04-16T03:32:54;8.82;76.59
74873;HTU21D;68776;44.762;37.698;2023-04-16T03:33:55;8.85;76.51
74873;HTU21D;68776;44.762;37.698;2023-04-16T03:34:56;8.86;76.56
74873;HTU21D;68776;44.762;37.698;2023-04-16T03:35:57;8.92;76.31
74873;HTU21D;68776;44.762;37.698;2023-04-16T03:37:01;8.94;76.08
74873;HTU21D;68776;44.762;37.698;2023-04-16T03:38:02;8.94;75.90
74873;HTU21D;68776;44.762;37.698;2023-04-16T03:39:03;8.93;75.81
74873;HTU21D;68776;44.762;37.698;2023-04-16T03:40:04;8.96;75.90
74873;HTU21D;68776;44.762;37.698;2023-04-16T03:41:06;9.03;76.50
74873;HTU21D;68776;44.762;37.698;2023-04-16T03:42:07;9.06;76.31
74873;HTU21D;68776;44.762;37.698;2023-04-16T03:43:09;9.09;75.89
74873;HTU21D;68776;44.762;37.698;2023-04-16T03:44:10;9.11;75.76
74873;HTU21D;68776;44.762;37.698;2023-04-16T03:45:11;9.15;75.89
74873;HTU21D;68776;44.762;37.698;2023-04-16T03:46:13;9.17;75.85
74873;HTU21D;68776;44.762;37.698;2023-04-16T03:47:14;9.18;75.83
74873;HTU21D;68776;44.762;37.698;2023-04-16T03:48:15;9.21;75.47
74873;HTU21D;68776;44.762;37.698;2023-04-16T03:49:16;9.25;75.35
74873;HTU21D;68776;44.762;37.698;2023-04-16T03:50:18;9.24;75.38
74873;HTU21D;68776;44.762;37.698;2023-04-16T03:51:19;9.24;75.54
74873;HTU21D;68776;44.762;37.698;2023-04-16T03:52:21;0.00;75.63
74873;HTU21D;68776;44.762;37.698;2023-04-16T03:53:22;9.30;75.61
74873;HTU21D;68776;44.762;37.698;2023-04-16T03:54:23;9.31;75.57
74873;HTU21D;68776;44.762;37.698;2023-04-16T03:55:31;9.30;75.43
74873;HTU21D;68776;44.762;37.698;2023-04-16T03:56:32;9.32;75.50
74873;HTU21D;68776;44.762;37.698;2023-04-16T03:57:33;9.37;75.55
74873;HTU21D;68776;44.762;37.698;2023-04-16T03:58:40;9.41;75.49
74873;HTU21D;68776;44.762;37.698;2023-04-16T03:59:42;9.40;75.41
74873;HTU21D;68776;44.762;37.698;2023-04-16T04:00:43;9.35;75.16
74873;HTU21D;68776;44.762;37.698;2023-04-16T04:01:47;9.30;75.31
74873;HTU21D;68776;44.762;37.698;2023-04-16T04:02:48;9.29;75.37
74873;HTU21D;68776;44.762;37.698;2023-04-16T04:03:52;9.31;75.73
74873;HTU21D;68776;44.762;37.698;2023-04-16T04:04:54;9.34;75.52
74873;HTU21D;68776;44.762;37.698;2023-04-16T04:05:55;9.37;75.17
74873;HTU21D;68776;44.762;37.698;2023-04-16T04:07:02;9.40;74.94
74873;HTU21D;68776;44.762;37.698;2023-04-16T04:08:04;9.42;74.94
74873;HTU21D;68776;44.762;37.698;2023-04-16T04:09:05;9.44;74.80
74873;HTU21D;68776;44.762;37.698;2023-04-16T04:10:07;9.47;75.03
74873;HTU21D;68776;44.762;37.698;2023-04-16T04:11:12;9.50;74.51
74873;HTU21D;68776;44.762;37.698;2023-04-16T04:12:15;9.49;74.22
74873;HTU21D;68776;44.762;37.698;2023-04-16T04:13:17;9.49;74.52
74873;HTU21D;68776;44.762;37.698;2023-04-16T04:14:18;9.47;74.48
74873;HTU21D;68776;44.762;37.698;2023-04-16T04:15:19;9.48;74.76
74873;HTU21D;68776;44.762;37.698;2023-04-16T04:16:21;9.47;74.50
74873;HTU21D;68776;44.762;37.698;2023-04-16T04:17:22;9.48;74.22
74873;HTU21D;68776;44.762;37.698;2023-04-16T04:18:24;9.52;74.15
74873;HTU21D;68776;44.762;37.698;2023-04-16T04:19:25;9.61;74.22
74873;HTU21D;68776;44.762;37.698;2023-04-16T04:20:26;9.68;74.32
74873;HTU21D;68776;44.762;37.698;2023-04-16T04:21:27;9.78;73.82
74873;HTU21D;68776;44.762;37.698;2023-04-16T04:22:28;9.80;73.54
74873;HTU21D;68776;44.762;37.698;2023-04-16T04:23:30;9.85;73.90
74873;HTU21D;68776;44.762;37.698;2023-04-16T04:24:31;9.89;73.52
74873;HTU21D;68776;44.762;37.698;2023-04-16T04:25:32;9.91;72.95
74873;HTU21D;68776;44.762;37.698;2023-04-16T04:26:33;9.88;73.02
74873;HTU21D;68776;44.762;37.698;2023-04-16T04:27:34;9.86;73.01
74873;HTU21D;68776;44.762;37.698;2023-04-16T04:28:36;9.85;73.09
74873;HTU21D;68776;44.762;37.698;2023-04-16T04:29:38;9.88;73.32
74873;HTU21D;68776;44.762;37.698;2023-04-16T04:30:40;9.90;73.29
74873;HTU21D;68776;44.762;37.698;2023-04-16T04:31:41;9.92;73.13
74873;HTU21D;68776;44.762;37.698;2023-04-16T04:32:42;9.95;73.13
74873;HTU21D;68776;44.762;37.698;2023-04-16T04:33:43;9.97;72.88
74873;HTU21D;68776;44.762;37.698;2023-04-16T04:34:44;10.03;72.71
74873;HTU21D;68776;44.762;37.698;2023-04-16T04:35:45;10.10;72.69
74873;HTU21D;68776;44.762;37.698;2023-04-16T04:36:46;10.09;72.54
74873;HTU21D;68776;44.762;37.698;2023-04-16T04:37:48;10.07;72.35
74873;HTU21D;68776;44.762;37.698;2023-04-16T04:38:52;10.06;72.54
74873;HTU21D;68776;44.762;37.698;2023-04-16T04:39:54;10.07;72.69
74873;HTU21D;68776;44.762;37.698;2023-04-16T04:40:55;10.11;72.45
74873;HTU21D;68776;44.762;37.698;2023-04-16T04:41:57;10.12;72.54
74873;HTU21D;68776;44.762;37.698;2023-04-16T04:42:59;10.16;72.28
74873;HTU21D;68776;44.762;37.698;2023-04-16T04:44:00;10.19;71.98
74873;HTU21D;68776;44.762;37.698;2023-04-16T04:45:01;10.20;71.74
74873;HTU21D;68776;44.762;37.698;2023-04-16T04:46:05;10.26;72.39
74873;HTU21D;68776;44.762;37.698;2023-04-16T04:47:06;10.34;72.40
74873;HTU21D;68776;44.762;37.698;2023-04-16T04:48:07;10.39;71.95
74873;HTU21D;68776;44.762;37.698;2023-04-16T04:49:08;10.44;72.06
74873;HTU21D;68776;44.762;37.698;2023-04-16T04:50:09;10.51;71.54
74873;HTU21D;68776;44.762;37.698;2023-04-16T04:51:11;10.56;71.22
74873;HTU21D;68776;44.762;37.698;2023-04-16T04:52:12;10.59;70.81
74873;HTU21D;68776;44.762;37.698;2023-04-16T04:53:14;10.63;70.90
74873;HTU21D;68776;44.762;37.698;2023-04-16T04:54:16;10.66;70.84
74873;HTU21D;68776;44.762;37.698;2023-04-16T04:55:17;10.70;70.63
74873;HTU21D;68776;44.762;37.698;2023-04-16T04:56:18;10.80;70.35
74873;HTU21D;68776;44.762;37.698;2023-04-16T04:57:19;10.88;69.90
74873;HTU21D;68776;44.762;37.698;2023-04-16T04:58:24;10.96;69.59
74873;HTU21D;68776;44.762;37.698;2023-04-16T04:59:25;10.97;69.33
74873;HTU21D;68776;44.762;37.698;2023-04-16T05:00:26;10.98;69.47
74873;HTU21D;68776;44.762;37.698;2023-04-16T05:01:29;10.94;69.30
74873;HTU21D;68776;44.762;37.698;2023-04-16T05:02:30;10.90;69.33
74873;HTU21D;68776;44.762;37.698;2023-04-16T05:03:31;10.96;69.61
74873;HTU21D;68776;44.762;37.698;2023-04-16T05:04:31;10.99;69.61
74873;HTU21D;68776;44.762;37.698;2023-04-16T05:05:32;10.99;69.49
74873;HTU21D;68776;44.762;37.698;2023-04-16T05:06:33;11.00;69.51
74873;HTU21D;68776;44.762;37.698;2023-04-16T05:07:34;11.05;69.49
74873;HTU21D;68776;44.762;37.698;2023-04-16T05:08:35;11.07;69.52
74873;HTU21D;68776;44.762;37.698;2023-04-16T05:09:36;11.07;69.06
74873;HTU21D;68776;44.762;37.698;2023-04-16T05:10:37;11.05;68.92
74873;HTU21D;68776;44.762;37.698;2023-04-16T05:11:40;11.09;69.00
74873;HTU21D;68776;44.762;37.698;2023-04-16T05:12:41;11.14;68.71
74873;HTU21D;68776;44.762;37.698;2023-04-16T05:13:42;11.19;67.99
74873;HTU21D;68776;44.762;37.698;2023-04-16T05:14:43;11.20;68.26
74873;HTU21D;68776;44.762;37.698;2023-04-16T05:15:44;11.20;68.52
74873;HTU21D;68776;44.762;37.698;2023-04-16T05:16:45;11.24;68.62
74873;HTU21D;68776;44.762;37.698;2023-04-16T05:17:46;11.29;68.75
74873;HTU21D;68776;44.762;37.698;2023-04-16T05:18:47;11.39;68.87
74873;HTU21D;68776;44.762;37.698;2023-04-16T05:19:49;11.46;68.58
74873;HTU21D;68776;44.762;37.698;2023-04-16T05:20:50;11.55;68.11
74873;HTU21D;68776;44.762;37.698;2023-04-16T05:21:51;11.56;67.89
74873;HTU21D;68776;44.762;37.698;2023-04-16T05:22:52;11.51;67.33
74873;HTU21D;68776;44.762;37.698;2023-04-16T05:23:54;11.41;67.04
74873;HTU21D;68776;44.762;37.698;2023-04-16T05:24:55;11.34;67.55
74873;HTU21D;68776;44.762;37.698;2023-04-16T05:25:56;11.38;67.64
74873;HTU21D;68776;44.762;37.698;2023-04-16T05:26:57;11.38;66.81
74873;HTU21D;68776;44.762;37.698;2023-04-16T05:27:58;0.00;66.99
74873;HTU21D;68776;44.762;37.698;2023-04-16T05:28:59;11.49;67.22
74873;HTU21D;68776;44.762;37.698;2023-04-16T05:30:00;11.62;67.11
74873;HTU21D;68776;44.762;37.698;2023-04-16T05:31:01;11.73;67.13
74873;HTU21D;68776;44.762;37.698;2023-04-16T05:32:02;11.75;66.73
74873;HTU21D;68776;44.762;37.698;2023-04-16T05:33:03;11.79;67.04
74873;HTU21D;68776;44.762;37.698;2023-04-16T05:34:04;11.88;66.81
74873;HTU21D;68776;44.762;37.698;2023-04-16T05:35:05;12.00;66.52
74873;HTU21D;68776;44.762;37.698;2023-04-16T05:36:06;12.03;66.15
74873;HTU21D;68776;44.762;37.698;2023-04-16T05:37:07;12.01;66.06
74873;HTU21D;68776;44.762;37.698;2023-04-16T05:38:08;11.99;66.61
74873;HTU21D;68776;44.762;37.698;2023-04-16T05:39:09;11.96;66.63
74873;HTU21D;68776;44.762;37.698;2023-04-16T05:40:12;12.00;66.52
74873;HTU21D;68776;44.762;37.698;2023-04-16T05:41:13;11.97;66.60
74873;HTU21D;68776;44.762;37.698;2023-04-16T05:42:14;11.93;65.88
74873;HTU21D;68776;44.762;37.698;2023-04-16T05:43:16;11.85;66.29
74873;HTU21D;68776;44.762;37.698;2023-04-16T05:44:17;11.89;66.16
74873;HTU21D;68776;44.762;37.698;2023-04-16T05:45:18;11.92;66.40
74873;HTU21D;68776;44.762;37.698;2023-04-16T05:46:19;11.96;65.93
74873;HTU21D;68776;44.762;37.698;2023-04-16T05:47:20;11.92;66.15
74873;HTU21D;68776;44.762;37.698;2023-04-16T05:48:21;11.96;66.29
74873;HTU21D;68776;44.762;37.698;2023-04-16T05:49:22;11.99;66.29
74873;HTU21D;68776;44.762;37.698;2023-04-16T05:50:23;12.00;66.42
74873;HTU21D;68776;44.762;37.698;2023-04-16T05:51:24;11.92;66.08
74873;HTU21D;68776;44.762;37.698;2023-04-16T05:52:27;11.91;66.06
74873;HTU21D;68776;44.762;37.698;2023-04-16T05:53:28;11.98;66.35
74873;HTU21D;68776;44.762;37.698;2023-04-16T05:54:29;12.10;66.10
74873;HTU21D;68776;44.762;37.698;2023-04-16T05:55:29;12.14;65.55
74873;HTU21D;68776;44.762;37.698;2023-04-16T05:56:30;12.12;65.49
74873;HTU21D;68776;44.762;37.698;2023-04-16T05:57:32;12.16;65.65
74873;HTU21D;68776;44.762;37.698;2023-04-16T05:58:33;12.16;65.73
74873;HTU21D;68776;44.762;37.698;2023-04-16T05:59:34;12.20;65.72
74873;HTU21D;68776;44.762;37.698;2023-04-16T06:00:35;12.27;65.40
74873;HTU21D;68776;44.762;37.698;2023-04-16T06:01:36;12.31;65.31
74873;HTU21D;68776;44.762;37.698;2023-04-16T06:02:37;12.36;64.93
74873;HTU21D;68776;44.762;37.698;2023-04-16T06:03:38;12.40;64.79
74873;HTU21D;68776;44.762;37.698;2023-04-16T06:04:39;12.42;64.94
74873;HTU21D;68776;44.762;37.698;2023-04-16T06:05:40;12.48;64.60
74873;HTU21D;68776;44.762;37.698;2023-04-16T06:06:41;12.52;64.63
74873;HTU21D;68776;44.762;37.698;2023-04-16T06:07:42;12.52;64.47
74873;HTU21D;68776;44.762;37.698;2023-04-16T06:08:43;12.55;64.82
74873;HTU21D;68776;44.762;37.698;2023-04-16T06:09:44;12.56;64.85
74873;HTU21D;68776;44.762;37.698;2023-04-16T06:10:45;12.57;64.51
74873;HTU21D;68776;44.762;37.698;2023-04-16T06:11:47;12.59;64.59
74873;HTU21D;68776;44.762;37.698;2023-04-16T06:12:48;12.62;64.91
74873;HTU21D;68776;44.762;37.698;2023-04-16T06:13:49;12.57;64.28
74873;HTU21D;68776;44.762;37.698;2023-04-16T06:14:50;12.48;64.21
74873;HTU21D;68776;44.762;37.698;2023-04-16T06:15:51;12.55;64.92
74873;HTU21D;68776;44.762;37.698;2023-04-16T06:16:52;12.64;64.82
74873;HTU21D;68776;44.762;37.698;2023-04-16T06:17:54;12.62;64.76
74873;HTU21D;68776;44.762;37.698;2023-04-16T06:18:55;12.58;64.79
74873;HTU21D;68776;44.762;37.698;2023-04-16T06:19:56;12.60;64.78
74873;HTU21D;68776;44.762;37.698;2023-04-16T06:20:57;12.56;64.62
74873;HTU21D;68776;44.762;37.698;2023-04-16T06:22:01;12.51;0.00